sensor_id;sensor_type;location;lat;lon;timestamp;P1;durP1;ratioP1;P2;durP2;ratioP2
16531;SDS011;66872;63.142;14.482;2023-10-13T00:01:30;0.20;;;0.20;;
16531;SDS011;66872;63.142;14.482;2023-10-13T00:03:55;0.50;;;0.50;;
16531;SDS011;66872;63.142;14.482;2023-10-13T00:06:21;0.57;;;0.57;;
16531;SDS011;66872;63.142;14.482;2023-10-13T00:08:46;0.53;;;0.50;;
16531;SDS011;66872;63.142;14.482;2023-10-13T00:11:13;0.40;;;0.40;;
16531;SDS011;66872;63.142;14.482;2023-10-13T00:13:40;0.40;;;0.40;;
16531;SDS011;66872;63.142;14.482;2023-10-13T00:16:16;0.30;;;0.30;;
16531;SDS011;66872;63.142;14.482;2023-10-13T00:18:43;0.50;;;0.50;;
16531;SDS011;66872;63.142;14.482;2023-10-13T00:21:09;0.53;;;0.50;;
16531;SDS011;66872;63.142;14.482;2023-10-13T00:23:39;0.30;;;0.30;;
16531;SDS011;66872;63.142;14.482;2023-10-13T00:26:20;0.80;;;0.70;;
16531;SDS011;66872;63.142;14.482;2023-10-13T00:28:52;0.77;;;0.63;;
16531;SDS011;66872;63.142;14.482;2023-10-13T00:31:37;0.77;;;0.67;;
16531;SDS011;66872;63.142;14.482;2023-10-13T00:34:08;0.30;;;0.30;;
16531;SDS011;66872;63.142;14.482;2023-10-13T00:36:44;0.77;;;0.60;;
16531;SDS011;66872;63.142;14.482;2023-10-13T00:39:28;0.77;;;0.60;;
16531;SDS011;66872;63.142;14.482;2023-10-13T00:41:54;0.93;;;0.67;;
16531;SDS011;66872;63.142;14.482;2023-10-13T00:44:24;0.37;;;0.37;;
16531;SDS011;66872;63.142;14.482;2023-10-13T00:46:57;0.70;;;0.53;;
16531;SDS011;66872;63.142;14.482;2023-10-13T00:49:23;0.70;;;0.60;;
16531;SDS011;66872;63.142;14.482;2023-10-13T00:51:49;0.70;;;0.50;;
16531;SDS011;66872;63.142;14.482;2023-10-13T00:54:16;0.50;;;0.50;;
16531;SDS011;66872;63.142;14.482;2023-10-13T00:56:43;0.57;;;0.53;;
16531;SDS011;66872;63.142;14.482;2023-10-13T00:59:14;0.60;;;0.50;;
16531;SDS011;66872;63.142;14.482;2023-10-13T01:01:41;0.63;;;0.63;;
16531;SDS011;66872;63.142;14.482;2023-10-13T01:04:08;0.60;;;0.43;;
16531;SDS011;66872;63.142;14.482;2023-10-13T01:06:37;0.40;;;0.40;;
16531;SDS011;66872;63.142;14.482;2023-10-13T01:11:40;0.40;;;0.40;;
16531;SDS011;66872;63.142;14.482;2023-10-13T01:14:11;1.40;;;0.80;;
16531;SDS011;66872;63.142;14.482;2023-10-13T01:16:40;0.50;;;0.37;;
16531;SDS011;66872;63.142;14.482;2023-10-13T01:19:09;0.87;;;0.47;;
16531;SDS011;66872;63.142;14.482;2023-10-13T01:21:39;0.57;;;0.57;;
16531;SDS011;66872;63.142;14.482;2023-10-13T01:24:12;0.57;;;0.43;;
16531;SDS011;66872;63.142;14.482;2023-10-13T01:26:42;0.77;;;0.70;;
16531;SDS011;66872;63.142;14.482;2023-10-13T01:29:09;0.73;;;0.50;;
16531;SDS011;66872;63.142;14.482;2023-10-13T01:31:41;0.47;;;0.47;;
16531;SDS011;66872;63.142;14.482;2023-10-13T01:36:44;0.67;;;0.60;;
16531;SDS011;66872;63.142;14.482;2023-10-13T01:39:10;0.60;;;0.60;;
16531;SDS011;66872;63.142;14.482;2023-10-13T01:41:41;1.50;;;0.70;;
16531;SDS011;66872;63.142;14.482;2023-10-13T01:44:08;1.00;;;0.63;;
16531;SDS011;66872;63.142;14.482;2023-10-13T01:46:36;1.20;;;0.70;;
16531;SDS011;66872;63.142;14.482;2023-10-13T01:49:03;0.70;;;0.63;;
16531;SDS011;66872;63.142;14.482;2023-10-13T01:51:28;0.70;;;0.70;;
16531;SDS011;66872;63.142;14.482;2023-10-13T01:53:54;0.70;;;0.70;;
16531;SDS011;66872;63.142;14.482;2023-10-13T01:56:23;0.87;;;0.80;;
16531;SDS011;66872;63.142;14.482;2023-10-13T01:58:49;0.67;;;0.67;;
16531;SDS011;66872;63.142;14.482;2023-10-13T02:01:17;0.83;;;0.60;;
16531;SDS011;66872;63.142;14.482;2023-10-13T02:03:55;0.87;;;0.73;;
16531;SDS011;66872;63.142;14.482;2023-10-13T02:06:31;0.73;;;0.67;;
16531;SDS011;66872;63.142;14.482;2023-10-13T02:09:05;0.60;;;0.60;;
16531;SDS011;66872;63.142;14.482;2023-10-13T02:11:41;0.80;;;0.70;;
16531;SDS011;66872;63.142;14.482;2023-10-13T02:14:12;1.07;;;0.83;;
16531;SDS011;66872;63.142;14.482;2023-10-13T02:16:41;0.93;;;0.67;;
16531;SDS011;66872;63.142;14.482;2023-10-13T02:19:07;0.90;;;0.63;;
16531;SDS011;66872;63.142;14.482;2023-10-13T02:21:33;0.57;;;0.57;;
16531;SDS011;66872;63.142;14.482;2023-10-13T02:24:07;0.53;;;0.53;;
16531;SDS011;66872;63.142;14.482;2023-10-13T02:26:38;0.90;;;0.70;;
16531;SDS011;66872;63.142;14.482;2023-10-13T02:29:06;0.70;;;0.63;;
16531;SDS011;66872;63.142;14.482;2023-10-13T02:31:39;0.47;;;0.40;;
16531;SDS011;66872;63.142;14.482;2023-10-13T02:34:05;0.57;;;0.50;;
16531;SDS011;66872;63.142;14.482;2023-10-13T02:36:38;1.00;;;0.60;;
16531;SDS011;66872;63.142;14.482;2023-10-13T02:39:19;0.77;;;0.70;;
16531;SDS011;66872;63.142;14.482;2023-10-13T02:41:52;1.03;;;0.80;;
16531;SDS011;66872;63.142;14.482;2023-10-13T02:44:20;1.03;;;0.90;;
16531;SDS011;66872;63.142;14.482;2023-10-13T02:46:55;0.73;;;0.67;;
16531;SDS011;66872;63.142;14.482;2023-10-13T02:49:22;0.73;;;0.70;;
16531;SDS011;66872;63.142;14.482;2023-10-13T02:51:51;1.20;;;0.77;;
16531;SDS011;66872;63.142;14.482;2023-10-13T02:54:17;0.80;;;0.50;;
16531;SDS011;66872;63.142;14.482;2023-10-13T02:56:44;1.13;;;0.67;;
16531;SDS011;66872;63.142;14.482;2023-10-13T02:59:22;0.80;;;0.70;;
16531;SDS011;66872;63.142;14.482;2023-10-13T03:02:11;0.57;;;0.50;;
16531;SDS011;66872;63.142;14.482;2023-10-13T03:04:57;0.73;;;0.50;;
16531;SDS011;66872;63.142;14.482;2023-10-13T03:07:34;1.43;;;0.80;;
16531;SDS011;66872;63.142;14.482;2023-10-13T03:10:01;0.50;;;0.50;;
16531;SDS011;66872;63.142;14.482;2023-10-13T03:12:34;0.50;;;0.47;;
16531;SDS011;66872;63.142;14.482;2023-10-13T03:15:01;1.20;;;0.67;;
16531;SDS011;66872;63.142;14.482;2023-10-13T03:17:42;0.47;;;0.47;;
16531;SDS011;66872;63.142;14.482;2023-10-13T03:20:09;0.70;;;0.60;;
16531;SDS011;66872;63.142;14.482;2023-10-13T03:22:38;0.73;;;0.53;;
16531;SDS011;66872;63.142;14.482;2023-10-13T03:25:04;0.67;;;0.50;;
16531;SDS011;66872;63.142;14.482;2023-10-13T03:27:32;0.70;;;0.70;;
16531;SDS011;66872;63.142;14.482;2023-10-13T03:30:16;0.77;;;0.60;;
16531;SDS011;66872;63.142;14.482;2023-10-13T03:32:42;0.63;;;0.60;;
16531;SDS011;66872;63.142;14.482;2023-10-13T03:35:19;0.97;;;0.70;;
16531;SDS011;66872;63.142;14.482;2023-10-13T03:37:56;0.87;;;0.67;;
16531;SDS011;66872;63.142;14.482;2023-10-13T03:40:22;0.77;;;0.77;;
16531;SDS011;66872;63.142;14.482;2023-10-13T03:42:48;0.77;;;0.70;;
16531;SDS011;66872;63.142;14.482;2023-10-13T03:48:04;0.83;;;0.73;;
16531;SDS011;66872;63.142;14.482;2023-10-13T03:50:37;1.13;;;1.00;;
16531;SDS011;66872;63.142;14.482;2023-10-13T03:53:13;1.10;;;0.80;;
16531;SDS011;66872;63.142;14.482;2023-10-13T03:55:39;0.50;;;0.50;;
16531;SDS011;66872;63.142;14.482;2023-10-13T03:58:13;0.77;;;0.77;;
16531;SDS011;66872;63.142;14.482;2023-10-13T04:00:39;1.20;;;0.80;;
16531;SDS011;66872;63.142;14.482;2023-10-13T04:03:07;0.60;;;0.60;;
16531;SDS011;66872;63.142;14.482;2023-10-13T04:05:34;0.70;;;0.70;;
16531;SDS011;66872;63.142;14.482;2023-10-13T04:08:26;0.60;;;0.60;;
16531;SDS011;66872;63.142;14.482;2023-10-13T04:10:55;0.70;;;0.70;;
16531;SDS011;66872;63.142;14.482;2023-10-13T04:13:21;0.67;;;0.67;;
16531;SDS011;66872;63.142;14.482;2023-10-13T04:16:08;0.70;;;0.70;;
16531;SDS011;66872;63.142;14.482;2023-10-13T04:18:47;0.87;;;0.77;;
16531;SDS011;66872;63.142;14.482;2023-10-13T04:21:25;0.90;;;0.80;;
16531;SDS011;66872;63.142;14.482;2023-10-13T04:24:06;0.83;;;0.70;;
16531;SDS011;66872;63.142;14.482;2023-10-13T04:27:02;0.63;;;0.57;;
16531;SDS011;66872;63.142;14.482;2023-10-13T04:29:37;0.83;;;0.70;;
16531;SDS011;66872;63.142;14.482;2023-10-13T04:32:21;0.60;;;0.60;;
16531;SDS011;66872;63.142;14.482;2023-10-13T04:34:56;0.67;;;0.60;;
16531;SDS011;66872;63.142;14.482;2023-10-13T04:37:33;1.00;;;0.60;;
16531;SDS011;66872;63.142;14.482;2023-10-13T04:40:21;0.40;;;0.40;;
16531;SDS011;66872;63.142;14.482;2023-10-13T04:42:51;0.90;;;0.70;;
16531;SDS011;66872;63.142;14.482;2023-10-13T04:45:22;0.63;;;0.60;;
16531;SDS011;66872;63.142;14.482;2023-10-13T04:48:00;0.70;;;0.70;;
16531;SDS011;66872;63.142;14.482;2023-10-13T04:50:49;0.83;;;0.70;;
16531;SDS011;66872;63.142;14.482;2023-10-13T04:53:24;0.63;;;0.60;;
16531;SDS011;66872;63.142;14.482;2023-10-13T04:55:59;0.60;;;0.50;;
16531;SDS011;66872;63.142;14.482;2023-10-13T04:58:28;0.60;;;0.60;;
16531;SDS011;66872;63.142;14.482;2023-10-13T05:01:04;0.80;;;0.60;;
16531;SDS011;66872;63.142;14.482;2023-10-13T05:04:02;0.83;;;0.60;;
16531;SDS011;66872;63.142;14.482;2023-10-13T05:06:40;1.03;;;0.70;;
16531;SDS011;66872;63.142;14.482;2023-10-13T05:09:08;0.77;;;0.77;;
16531;SDS011;66872;63.142;14.482;2023-10-13T05:11:52;0.93;;;0.70;;
16531;SDS011;66872;63.142;14.482;2023-10-13T05:14:37;0.63;;;0.60;;
16531;SDS011;66872;63.142;14.482;2023-10-13T05:17:22;0.53;;;0.53;;
16531;SDS011;66872;63.142;14.482;2023-10-13T05:20:06;1.83;;;0.70;;
16531;SDS011;66872;63.142;14.482;2023-10-13T05:22:51;1.10;;;0.57;;
16531;SDS011;66872;63.142;14.482;2023-10-13T05:25:35;0.77;;;0.60;;
16531;SDS011;66872;63.142;14.482;2023-10-13T05:28:20;0.67;;;0.67;;
16531;SDS011;66872;63.142;14.482;2023-10-13T05:31:04;0.90;;;0.60;;
16531;SDS011;66872;63.142;14.482;2023-10-13T05:33:49;0.77;;;0.77;;
16531;SDS011;66872;63.142;14.482;2023-10-13T05:36:33;0.60;;;0.60;;
16531;SDS011;66872;63.142;14.482;2023-10-13T05:39:18;0.80;;;0.70;;
16531;SDS011;66872;63.142;14.482;2023-10-13T05:42:02;0.70;;;0.60;;
16531;SDS011;66872;63.142;14.482;2023-10-13T05:44:46;0.53;;;0.53;;
16531;SDS011;66872;63.142;14.482;2023-10-13T05:47:22;0.90;;;0.83;;
16531;SDS011;66872;63.142;14.482;2023-10-13T05:50:11;1.73;;;0.90;;
16531;SDS011;66872;63.142;14.482;2023-10-13T05:52:49;0.77;;;0.60;;
16531;SDS011;66872;63.142;14.482;2023-10-13T05:55:22;1.73;;;0.90;;
16531;SDS011;66872;63.142;14.482;2023-10-13T05:58:13;0.77;;;0.50;;
16531;SDS011;66872;63.142;14.482;2023-10-13T06:00:58;0.60;;;0.60;;
16531;SDS011;66872;63.142;14.482;2023-10-13T06:03:43;0.83;;;0.63;;
16531;SDS011;66872;63.142;14.482;2023-10-13T06:06:27;0.73;;;0.60;;
16531;SDS011;66872;63.142;14.482;2023-10-13T06:09:11;0.50;;;0.50;;
16531;SDS011;66872;63.142;14.482;2023-10-13T06:11:55;0.93;;;0.90;;
16531;SDS011;66872;63.142;14.482;2023-10-13T06:14:39;0.70;;;0.70;;
16531;SDS011;66872;63.142;14.482;2023-10-13T06:17:23;1.17;;;0.67;;
16531;SDS011;66872;63.142;14.482;2023-10-13T06:20:07;0.57;;;0.50;;
16531;SDS011;66872;63.142;14.482;2023-10-13T06:22:52;1.30;;;0.90;;
16531;SDS011;66872;63.142;14.482;2023-10-13T06:25:37;1.00;;;0.70;;
16531;SDS011;66872;63.142;14.482;2023-10-13T06:28:35;0.50;;;0.50;;
16531;SDS011;66872;63.142;14.482;2023-10-13T06:31:07;0.70;;;0.70;;
16531;SDS011;66872;63.142;14.482;2023-10-13T06:33:54;0.80;;;0.80;;
16531;SDS011;66872;63.142;14.482;2023-10-13T06:36:20;0.60;;;0.60;;
16531;SDS011;66872;63.142;14.482;2023-10-13T06:38:46;1.00;;;0.80;;
16531;SDS011;66872;63.142;14.482;2023-10-13T06:41:20;0.63;;;0.60;;
16531;SDS011;66872;63.142;14.482;2023-10-13T06:43:47;0.47;;;0.47;;
16531;SDS011;66872;63.142;14.482;2023-10-13T06:46:24;0.60;;;0.60;;
16531;SDS011;66872;63.142;14.482;2023-10-13T06:48:53;0.97;;;0.90;;
16531;SDS011;66872;63.142;14.482;2023-10-13T06:51:19;0.60;;;0.60;;
16531;SDS011;66872;63.142;14.482;2023-10-13T06:53:48;0.40;;;0.40;;
16531;SDS011;66872;63.142;14.482;2023-10-13T06:56:14;0.60;;;0.60;;
16531;SDS011;66872;63.142;14.482;2023-10-13T06:58:53;0.90;;;0.80;;
16531;SDS011;66872;63.142;14.482;2023-10-13T07:01:29;0.97;;;0.70;;
16531;SDS011;66872;63.142;14.482;2023-10-13T07:03:55;0.80;;;0.67;;
16531;SDS011;66872;63.142;14.482;2023-10-13T07:06:26;0.80;;;0.73;;
16531;SDS011;66872;63.142;14.482;2023-10-13T07:08:52;0.87;;;0.80;;
16531;SDS011;66872;63.142;14.482;2023-10-13T07:11:27;1.10;;;0.80;;
16531;SDS011;66872;63.142;14.482;2023-10-13T07:14:03;0.83;;;0.60;;
16531;SDS011;66872;63.142;14.482;2023-10-13T07:16:57;0.60;;;0.60;;
16531;SDS011;66872;63.142;14.482;2023-10-13T07:19:29;0.70;;;0.50;;
16531;SDS011;66872;63.142;14.482;2023-10-13T07:21:55;0.50;;;0.50;;
16531;SDS011;66872;63.142;14.482;2023-10-13T07:24:44;0.90;;;0.80;;
16531;SDS011;66872;63.142;14.482;2023-10-13T07:27:17;0.90;;;0.67;;
16531;SDS011;66872;63.142;14.482;2023-10-13T07:29:52;0.57;;;0.57;;
16531;SDS011;66872;63.142;14.482;2023-10-13T07:32:30;0.63;;;0.60;;
16531;SDS011;66872;63.142;14.482;2023-10-13T07:34:59;0.80;;;0.50;;
16531;SDS011;66872;63.142;14.482;2023-10-13T07:37:26;0.87;;;0.80;;
16531;SDS011;66872;63.142;14.482;2023-10-13T07:39:57;0.80;;;0.80;;
16531;SDS011;66872;63.142;14.482;2023-10-13T07:42:26;1.33;;;0.73;;
16531;SDS011;66872;63.142;14.482;2023-10-13T07:44:57;0.63;;;0.60;;
16531;SDS011;66872;63.142;14.482;2023-10-13T07:47:24;0.60;;;0.60;;
16531;SDS011;66872;63.142;14.482;2023-10-13T07:49:51;0.63;;;0.63;;
16531;SDS011;66872;63.142;14.482;2023-10-13T07:52:17;0.83;;;0.63;;
16531;SDS011;66872;63.142;14.482;2023-10-13T07:54:46;0.60;;;0.60;;
16531;SDS011;66872;63.142;14.482;2023-10-13T07:57:14;0.93;;;0.70;;
16531;SDS011;66872;63.142;14.482;2023-10-13T07:59:40;0.70;;;0.70;;
16531;SDS011;66872;63.142;14.482;2023-10-13T08:02:16;0.50;;;0.50;;
16531;SDS011;66872;63.142;14.482;2023-10-13T08:05:01;0.80;;;0.70;;
16531;SDS011;66872;63.142;14.482;2023-10-13T08:07:29;0.70;;;0.70;;
16531;SDS011;66872;63.142;14.482;2023-10-13T08:09:56;0.50;;;0.50;;
16531;SDS011;66872;63.142;14.482;2023-10-13T08:12:24;0.60;;;0.60;;
16531;SDS011;66872;63.142;14.482;2023-10-13T08:14:50;0.63;;;0.50;;
16531;SDS011;66872;63.142;14.482;2023-10-13T08:17:34;1.03;;;0.60;;
16531;SDS011;66872;63.142;14.482;2023-10-13T08:20:00;7.63;;;1.10;;
16531;SDS011;66872;63.142;14.482;2023-10-13T08:22:36;3.83;;;0.97;;
16531;SDS011;66872;63.142;14.482;2023-10-13T08:25:03;3.30;;;0.60;;
16531;SDS011;66872;63.142;14.482;2023-10-13T08:27:48;1.57;;;0.83;;
16531;SDS011;66872;63.142;14.482;2023-10-13T08:30:15;2.57;;;0.90;;
16531;SDS011;66872;63.142;14.482;2023-10-13T08:32:56;2.33;;;1.00;;
16531;SDS011;66872;63.142;14.482;2023-10-13T08:35:23;4.87;;;1.00;;
16531;SDS011;66872;63.142;14.482;2023-10-13T08:37:55;5.70;;;1.30;;
16531;SDS011;66872;63.142;14.482;2023-10-13T08:40:23;2.47;;;1.20;;
16531;SDS011;66872;63.142;14.482;2023-10-13T08:43:11;4.47;;;1.20;;
16531;SDS011;66872;63.142;14.482;2023-10-13T08:45:41;3.30;;;1.00;;
16531;SDS011;66872;63.142;14.482;2023-10-13T08:48:12;3.37;;;1.00;;
16531;SDS011;66872;63.142;14.482;2023-10-13T08:50:44;4.50;;;1.10;;
16531;SDS011;66872;63.142;14.482;2023-10-13T08:53:24;4.97;;;1.07;;
16531;SDS011;66872;63.142;14.482;2023-10-13T08:58:35;5.50;;;1.13;;
16531;SDS011;66872;63.142;14.482;2023-10-13T09:01:27;5.50;;;1.03;;
16531;SDS011;66872;63.142;14.482;2023-10-13T09:04:00;3.10;;;1.30;;
16531;SDS011;66872;63.142;14.482;2023-10-13T09:06:51;1.80;;;1.13;;
16531;SDS011;66872;63.142;14.482;2023-10-13T09:09:54;2.90;;;1.20;;
16531;SDS011;66872;63.142;14.482;2023-10-13T09:14:54;6.33;;;1.00;;
16531;SDS011;66872;63.142;14.482;2023-10-13T09:17:26;4.27;;;1.10;;
16531;SDS011;66872;63.142;14.482;2023-10-13T09:20:07;2.93;;;1.30;;
16531;SDS011;66872;63.142;14.482;2023-10-13T09:22:49;4.40;;;1.17;;
16531;SDS011;66872;63.142;14.482;2023-10-13T09:25:28;2.00;;;0.90;;
16531;SDS011;66872;63.142;14.482;2023-10-13T09:28:10;6.80;;;0.97;;
16531;SDS011;66872;63.142;14.482;2023-10-13T09:30:50;2.73;;;0.73;;
16531;SDS011;66872;63.142;14.482;2023-10-13T09:33:28;4.67;;;1.00;;
16531;SDS011;66872;63.142;14.482;2023-10-13T09:36:00;2.50;;;0.77;;
16531;SDS011;66872;63.142;14.482;2023-10-13T09:38:30;1.27;;;0.80;;
16531;SDS011;66872;63.142;14.482;2023-10-13T09:41:04;2.47;;;0.70;;
16531;SDS011;66872;63.142;14.482;2023-10-13T09:43:43;1.83;;;0.80;;
16531;SDS011;66872;63.142;14.482;2023-10-13T09:46:10;3.37;;;0.97;;
16531;SDS011;66872;63.142;14.482;2023-10-13T09:48:46;3.10;;;0.90;;
16531;SDS011;66872;63.142;14.482;2023-10-13T09:51:13;5.33;;;1.20;;
16531;SDS011;66872;63.142;14.482;2023-10-13T09:53:47;9.93;;;1.60;;
16531;SDS011;66872;63.142;14.482;2023-10-13T09:56:20;13.30;;;1.87;;
16531;SDS011;66872;63.142;14.482;2023-10-13T10:01:25;4.60;;;1.00;;
16531;SDS011;66872;63.142;14.482;2023-10-13T10:04:07;3.40;;;1.33;;
16531;SDS011;66872;63.142;14.482;2023-10-13T10:06:51;19.83;;;4.60;;
16531;SDS011;66872;63.142;14.482;2023-10-13T10:09:17;18.70;;;4.03;;
16531;SDS011;66872;63.142;14.482;2023-10-13T10:14:33;17.80;;;3.00;;
16531;SDS011;66872;63.142;14.482;2023-10-13T10:17:20;11.67;;;2.40;;
16531;SDS011;66872;63.142;14.482;2023-10-13T10:22:13;8.23;;;2.60;;
16531;SDS011;66872;63.142;14.482;2023-10-13T10:24:59;10.90;;;2.60;;
16531;SDS011;66872;63.142;14.482;2023-10-13T10:27:28;4.40;;;2.10;;
16531;SDS011;66872;63.142;14.482;2023-10-13T10:29:55;5.80;;;2.07;;
16531;SDS011;66872;63.142;14.482;2023-10-13T10:32:43;7.23;;;2.10;;
16531;SDS011;66872;63.142;14.482;2023-10-13T10:35:13;8.20;;;2.00;;
16531;SDS011;66872;63.142;14.482;2023-10-13T10:37:40;3.70;;;1.90;;
16531;SDS011;66872;63.142;14.482;2023-10-13T10:40:12;4.70;;;2.10;;
16531;SDS011;66872;63.142;14.482;2023-10-13T10:42:58;4.33;;;1.97;;
16531;SDS011;66872;63.142;14.482;2023-10-13T10:45:26;3.80;;;1.90;;
16531;SDS011;66872;63.142;14.482;2023-10-13T10:47:58;4.30;;;1.97;;
16531;SDS011;66872;63.142;14.482;2023-10-13T10:50:26;5.27;;;1.90;;
16531;SDS011;66872;63.142;14.482;2023-10-13T10:53:00;5.43;;;1.80;;
16531;SDS011;66872;63.142;14.482;2023-10-13T10:55:34;2.53;;;1.70;;
16531;SDS011;66872;63.142;14.482;2023-10-13T10:58:02;2.70;;;1.80;;
16531;SDS011;66872;63.142;14.482;2023-10-13T11:00:31;4.77;;;1.70;;
16531;SDS011;66872;63.142;14.482;2023-10-13T11:03:11;3.33;;;1.80;;
16531;SDS011;66872;63.142;14.482;2023-10-13T11:05:46;3.67;;;1.73;;
16531;SDS011;66872;63.142;14.482;2023-10-13T11:08:23;2.97;;;1.70;;
16531;SDS011;66872;63.142;14.482;2023-10-13T11:10:57;3.13;;;1.90;;
16531;SDS011;66872;63.142;14.482;2023-10-13T11:13:25;3.90;;;1.60;;
16531;SDS011;66872;63.142;14.482;2023-10-13T11:15:55;2.90;;;1.50;;
16531;SDS011;66872;63.142;14.482;2023-10-13T11:18:29;3.00;;;1.67;;
16531;SDS011;66872;63.142;14.482;2023-10-13T11:20:59;3.10;;;1.50;;
16531;SDS011;66872;63.142;14.482;2023-10-13T11:23:24;1.63;;;1.30;;
16531;SDS011;66872;63.142;14.482;2023-10-13T11:25:59;1.93;;;1.50;;
16531;SDS011;66872;63.142;14.482;2023-10-13T11:28:25;2.50;;;1.60;;
16531;SDS011;66872;63.142;14.482;2023-10-13T11:30:57;1.50;;;1.40;;
16531;SDS011;66872;63.142;14.482;2023-10-13T11:33:24;1.30;;;1.20;;
16531;SDS011;66872;63.142;14.482;2023-10-13T11:35:53;1.47;;;1.27;;
16531;SDS011;66872;63.142;14.482;2023-10-13T11:43:31;2.20;;;1.20;;
16531;SDS011;66872;63.142;14.482;2023-10-13T11:46:20;2.63;;;1.47;;
16531;SDS011;66872;63.142;14.482;2023-10-13T11:49:04;1.20;;;1.10;;
16531;SDS011;66872;63.142;14.482;2023-10-13T11:51:43;2.50;;;1.43;;
16531;SDS011;66872;63.142;14.482;2023-10-13T11:54:13;2.33;;;1.30;;
16531;SDS011;66872;63.142;14.482;2023-10-13T11:56:40;1.70;;;1.40;;
16531;SDS011;66872;63.142;14.482;2023-10-13T11:59:06;1.67;;;1.37;;
16531;SDS011;66872;63.142;14.482;2023-10-13T12:01:41;2.03;;;1.30;;
16531;SDS011;66872;63.142;14.482;2023-10-13T12:04:26;2.90;;;1.40;;
16531;SDS011;66872;63.142;14.482;2023-10-13T12:06:58;1.20;;;1.10;;
16531;SDS011;66872;63.142;14.482;2023-10-13T12:09:42;1.80;;;1.30;;
16531;SDS011;66872;63.142;14.482;2023-10-13T12:12:24;1.67;;;1.20;;
16531;SDS011;66872;63.142;14.482;2023-10-13T12:14:51;1.90;;;1.27;;
16531;SDS011;66872;63.142;14.482;2023-10-13T12:17:23;1.87;;;1.40;;
16531;SDS011;66872;63.142;14.482;2023-10-13T12:20:07;1.37;;;1.03;;
16531;SDS011;66872;63.142;14.482;2023-10-13T12:22:42;1.23;;;1.10;;
16531;SDS011;66872;63.142;14.482;2023-10-13T12:25:08;1.57;;;1.10;;
16531;SDS011;66872;63.142;14.482;2023-10-13T12:27:53;1.47;;;1.20;;
16531;SDS011;66872;63.142;14.482;2023-10-13T12:30:25;2.27;;;1.40;;
16531;SDS011;66872;63.142;14.482;2023-10-13T12:33:24;1.97;;;1.20;;
16531;SDS011;66872;63.142;14.482;2023-10-13T12:35:58;1.30;;;1.03;;
16531;SDS011;66872;63.142;14.482;2023-10-13T12:38:34;1.37;;;1.10;;
16531;SDS011;66872;63.142;14.482;2023-10-13T12:41:19;1.10;;;0.93;;
16531;SDS011;66872;63.142;14.482;2023-10-13T12:44:04;1.97;;;1.13;;
16531;SDS011;66872;63.142;14.482;2023-10-13T12:46:49;1.27;;;1.17;;
16531;SDS011;66872;63.142;14.482;2023-10-13T12:49:34;1.50;;;1.10;;
16531;SDS011;66872;63.142;14.482;2023-10-13T12:52:05;2.40;;;1.27;;
16531;SDS011;66872;63.142;14.482;2023-10-13T12:54:41;1.50;;;1.07;;
16531;SDS011;66872;63.142;14.482;2023-10-13T12:57:22;3.70;;;1.30;;
16531;SDS011;66872;63.142;14.482;2023-10-13T12:59:52;1.83;;;1.10;;
16531;SDS011;66872;63.142;14.482;2023-10-13T13:02:22;1.87;;;1.20;;
16531;SDS011;66872;63.142;14.482;2023-10-13T13:04:52;1.43;;;0.90;;
16531;SDS011;66872;63.142;14.482;2023-10-13T13:07:40;1.47;;;1.20;;
16531;SDS011;66872;63.142;14.482;2023-10-13T13:10:15;2.90;;;1.10;;
16531;SDS011;66872;63.142;14.482;2023-10-13T13:12:41;2.33;;;1.20;;
16531;SDS011;66872;63.142;14.482;2023-10-13T13:15:07;1.37;;;1.10;;
16531;SDS011;66872;63.142;14.482;2023-10-13T13:17:37;1.20;;;1.00;;
16531;SDS011;66872;63.142;14.482;2023-10-13T13:20:06;2.00;;;1.20;;
16531;SDS011;66872;63.142;14.482;2023-10-13T13:22:39;2.53;;;1.20;;
16531;SDS011;66872;63.142;14.482;2023-10-13T13:25:05;1.30;;;1.10;;
16531;SDS011;66872;63.142;14.482;2023-10-13T13:27:35;1.23;;;0.93;;
16531;SDS011;66872;63.142;14.482;2023-10-13T13:30:02;1.77;;;1.10;;
16531;SDS011;66872;63.142;14.482;2023-10-13T13:32:37;1.97;;;1.03;;
16531;SDS011;66872;63.142;14.482;2023-10-13T13:35:04;2.13;;;1.13;;
16531;SDS011;66872;63.142;14.482;2023-10-13T13:37:33;1.83;;;1.20;;
16531;SDS011;66872;63.142;14.482;2023-10-13T13:39:59;1.20;;;1.00;;
16531;SDS011;66872;63.142;14.482;2023-10-13T13:42:47;2.23;;;1.10;;
16531;SDS011;66872;63.142;14.482;2023-10-13T13:45:13;5.43;;;1.50;;
16531;SDS011;66872;63.142;14.482;2023-10-13T13:48:09;5.17;;;1.60;;
16531;SDS011;66872;63.142;14.482;2023-10-13T13:50:40;5.87;;;1.47;;
16531;SDS011;66872;63.142;14.482;2023-10-13T13:53:09;3.00;;;1.23;;
16531;SDS011;66872;63.142;14.482;2023-10-13T13:55:36;2.70;;;1.20;;
16531;SDS011;66872;63.142;14.482;2023-10-13T13:58:05;3.13;;;1.20;;
16531;SDS011;66872;63.142;14.482;2023-10-13T14:00:33;2.33;;;1.23;;
16531;SDS011;66872;63.142;14.482;2023-10-13T14:03:13;1.83;;;1.10;;
16531;SDS011;66872;63.142;14.482;2023-10-13T14:05:56;1.73;;;0.83;;
16531;SDS011;66872;63.142;14.482;2023-10-13T14:08:26;3.73;;;1.40;;
16531;SDS011;66872;63.142;14.482;2023-10-13T14:10:55;2.50;;;1.20;;
16531;SDS011;66872;63.142;14.482;2023-10-13T14:13:39;6.20;;;1.80;;
16531;SDS011;66872;63.142;14.482;2023-10-13T14:16:17;2.80;;;1.40;;
16531;SDS011;66872;63.142;14.482;2023-10-13T14:18:47;3.27;;;1.30;;
16531;SDS011;66872;63.142;14.482;2023-10-13T14:21:14;6.20;;;1.40;;
16531;SDS011;66872;63.142;14.482;2023-10-13T14:23:50;4.87;;;1.47;;
16531;SDS011;66872;63.142;14.482;2023-10-13T14:26:20;2.70;;;1.40;;
16531;SDS011;66872;63.142;14.482;2023-10-13T14:28:47;8.10;;;1.20;;
16531;SDS011;66872;63.142;14.482;2023-10-13T14:31:27;3.63;;;1.30;;
16531;SDS011;66872;63.142;14.482;2023-10-13T14:33:53;4.77;;;1.43;;
16531;SDS011;66872;63.142;14.482;2023-10-13T14:36:19;2.33;;;1.03;;
16531;SDS011;66872;63.142;14.482;2023-10-13T14:38:47;3.63;;;1.20;;
16531;SDS011;66872;63.142;14.482;2023-10-13T14:41:16;2.30;;;1.20;;
16531;SDS011;66872;63.142;14.482;2023-10-13T14:43:43;4.97;;;1.20;;
16531;SDS011;66872;63.142;14.482;2023-10-13T14:46:18;3.83;;;1.40;;
16531;SDS011;66872;63.142;14.482;2023-10-13T14:48:53;4.77;;;1.23;;
16531;SDS011;66872;63.142;14.482;2023-10-13T14:51:19;3.73;;;1.30;;
16531;SDS011;66872;63.142;14.482;2023-10-13T14:53:45;1.83;;;1.10;;
16531;SDS011;66872;63.142;14.482;2023-10-13T14:56:15;3.23;;;1.20;;
16531;SDS011;66872;63.142;14.482;2023-10-13T14:58:43;3.10;;;1.20;;
16531;SDS011;66872;63.142;14.482;2023-10-13T15:01:12;2.63;;;1.13;;
16531;SDS011;66872;63.142;14.482;2023-10-13T15:06:14;1.37;;;1.00;;
16531;SDS011;66872;63.142;14.482;2023-10-13T15:08:50;1.47;;;1.00;;
16531;SDS011;66872;63.142;14.482;2023-10-13T15:11:19;1.53;;;0.80;;
16531;SDS011;66872;63.142;14.482;2023-10-13T15:13:46;2.00;;;0.90;;
16531;SDS011;66872;63.142;14.482;2023-10-13T15:16:22;1.87;;;1.00;;
16531;SDS011;66872;63.142;14.482;2023-10-13T15:18:50;1.40;;;1.10;;
16531;SDS011;66872;63.142;14.482;2023-10-13T15:21:20;1.23;;;1.03;;
16531;SDS011;66872;63.142;14.482;2023-10-13T15:23:48;1.43;;;1.00;;
16531;SDS011;66872;63.142;14.482;2023-10-13T15:26:16;2.73;;;1.13;;
16531;SDS011;66872;63.142;14.482;2023-10-13T15:28:49;1.67;;;0.90;;
16531;SDS011;66872;63.142;14.482;2023-10-13T15:31:22;1.60;;;1.00;;
16531;SDS011;66872;63.142;14.482;2023-10-13T15:34:12;2.97;;;1.20;;
16531;SDS011;66872;63.142;14.482;2023-10-13T15:36:41;1.07;;;0.90;;
16531;SDS011;66872;63.142;14.482;2023-10-13T15:39:11;1.27;;;0.90;;
16531;SDS011;66872;63.142;14.482;2023-10-13T15:41:40;2.10;;;1.47;;